Funk Island Bank: Past 24 Hour Conditions

 

St. Anthony Airport

05:30 AM NST 11 December 2016
Disclaimer

This table is a summary of hourly weather conditions for the past 24 hours.
Please note that these observations might not always be representative of weather conditions over their associated marine area.

Date / Time
(NST)
Wind(knots) Conditions Visibility(km) Pressure(kPa) Air tempC) Relative humidity(%) Dew pointC) Wind Chill
11 December 2016
5:30 WSW 14 Light Snow 16 100.3 -10 83 -13 -19
4:30 WSW 13 Light Snow 16 100.3 -11 79 -14 -20
3:30 WSW 13 gust 18 Partly Cloudy 16 100.2 -11 78 -14 -20
2:30 W 14 gust 19 Mostly Cloudy 16 100.2 -11 77 -14 -20
1:30 W 12 Partly Cloudy 16 100.2 -12 77 -15 -20
0:30 W 14 Clear 16 100.2 -11 78 -15 -21
10 December 2016
23:30 W 13 gust 18 Clear 16 100.2 -11 75 -15 -20
22:30 W 14 gust 20 Clear 16 100.1 -10 75 -14 -19
21:30 W 14 gust 20 Clear 16 100.1 -10 73 -14 -19
20:30 W 18 gust 23 Clear 16 100.1 -10 73 -14 -20
19:30 W 14 gust 19 Clear 16 100.1 -9 73 -13 -18
18:30 W 19 gust 27 Clear 15 100.0 -9 71 -13 -19
17:30 W 17 gust 26 Mainly Clear 16 100.0 -8 68 -13 -17
16:30 W 20 gust 25 Clear 16 99.9 -7 68 -12 -17
15:30 W 21 gust 26 Sunny 15 99.8 -6 71 -11 -16
14:30 W 19 gust 28 Sunny 11 99.6 -5 72 -10 -14
13:30 W 18 gust 26 Haze 10 99.6 -5 72 -10 -14
12:30 W 17 gust 24 Cloudy 16 99.6 -5 72 -9 -13
11:30 W 17 Cloudy 16 99.5 -5 75 -8 -13
10:30 WSW 15 gust 21 Light Snow 4 99.5 -6 90 -7 -13
9:30 WSW 15 gust 22 Light Snow 4 99.5 -5 85 -8 -13
8:30 WSW 17 gust 23 Light Snow 2 99.4 -7 90 -8 -15
7:30 WSW 18 gust 24 Light Snow 4 99.3 -7 90 -8 -16
6:30 WSW 18 Light Snow 3 99.2 -7 89 -9 -16
5:30 WSW 14 gust 19 Light Snow 4 99.2 -7 88 -9 -15

Zoom-in to make a selection

Map of Atlantic - Newfoundland marine weather areas Southwestern Grand Banks - 44138 Banquereau - 44139 Tail of the Bank - 44140 Nickerson Bank - 44251 Northeast Burgeo Bank - 44255 Blanc-Sablon Airport Cap Whittle Chevery Natashquan Airport Heath Point Miscou Island Grand Étang Ingonish Beach North Mountain St.Paul Island J.A. Douglas McCurdy Sydney Airport Charlottetown Airport East Point North Cape Argentia Bonavista Burgeo Cape Race Corner Brook Daniel's Harbour Englee Ferolle Point La Scie Port aux Basques Rocky Harbour Sagona Island St. Anthony Airport St. John's Int'l Airport St. Lawrence Stephenville Airport Twillingate Winterland Wreckhouse Cartwright Airport Mary's Harbour Grates Cove Pool's Island Marticot Island Long Pond Eskasoni (First Nations) Îles de la Madeleine Airport
Legend:
buoy Buoy
land station Land Station

Atlantic - Newfoundland Area

Another Region

What we are doing

Date modified: